createdAt,value
2022-10-04T00:01:47.846Z,97097.28
2022-10-04T00:04:19.116Z,97086.81
2022-10-04T00:06:50.960Z,97078.66
2022-10-04T00:09:23.429Z,97087.28
2022-10-04T00:11:53.880Z,97080.97
2022-10-04T00:14:24.240Z,97090.06
2022-10-04T00:16:52.715Z,97083.53
2022-10-04T00:19:40.293Z,97071.56
2022-10-04T00:22:18.473Z,97074.50
2022-10-04T00:25:23.128Z,97074.19
2022-10-04T00:28:29.063Z,97077.31
2022-10-04T00:31:17.525Z,97073.63
2022-10-04T00:33:47.637Z,97075.81
2022-10-04T00:36:40.607Z,97075.16
2022-10-04T00:39:47.632Z,97072.00
2022-10-04T00:42:37.756Z,97075.31
2022-10-04T00:45:12.918Z,97073.16
2022-10-04T00:47:59.324Z,97070.84
2022-10-04T00:50:30.761Z,97055.56
2022-10-04T00:53:01.053Z,97061.25
2022-10-04T00:55:35.146Z,97065.09
2022-10-04T00:58:07.514Z,97058.88
2022-10-04T01:00:36.894Z,97064.69
2022-10-04T01:03:07.313Z,97062.53
2022-10-04T01:05:38.003Z,97060.19
2022-10-04T01:08:07.600Z,97065.97
2022-10-04T01:10:41.681Z,97053.84
2022-10-04T01:13:15.367Z,97035.66
2022-10-04T01:15:46.337Z,97042.22
2022-10-04T01:18:16.606Z,97049.19
2022-10-04T01:20:54.515Z,97045.56
2022-10-04T01:23:41.873Z,97043.16
2022-10-04T01:26:39.200Z,97049.09
2022-10-04T01:29:10.310Z,97042.00
2022-10-04T01:31:40.723Z,97042.97
2022-10-04T01:34:09.066Z,97034.41
2022-10-04T01:36:38.095Z,97044.47
2022-10-04T01:39:08.215Z,97041.03
2022-10-04T01:41:44.635Z,97043.75
2022-10-04T01:44:20.126Z,97031.84
2022-10-04T01:46:49.633Z,97027.88
2022-10-04T01:49:20.223Z,97033.28
2022-10-04T01:51:54.463Z,97018.63
2022-10-04T01:54:32.527Z,97025.25
2022-10-04T01:57:05.210Z,97019.91
2022-10-04T01:59:39.506Z,97017.53
2022-10-04T02:02:10.847Z,97008.50
2022-10-04T02:04:40.466Z,97002.38
2022-10-04T02:07:13.772Z,97005.03
2022-10-04T02:09:45.705Z,96998.19
2022-10-04T02:12:17.206Z,97002.38
2022-10-04T02:14:52.648Z,97011.50
2022-10-04T02:17:23.292Z,97013.84
2022-10-04T02:19:51.309Z,97007.97
2022-10-04T02:22:20.223Z,97005.84
2022-10-04T02:24:50.826Z,97002.06
2022-10-04T02:27:18.836Z,97002.50
2022-10-04T02:29:47.078Z,97007.09
2022-10-04T02:32:33.513Z,96998.53
2022-10-04T02:35:01.831Z,96998.34
2022-10-04T02:37:30.213Z,97005.78
2022-10-04T02:40:06.216Z,97004.78
2022-10-04T02:42:40.250Z,97014.38
2022-10-04T02:45:14.899Z,97010.44
2022-10-04T02:47:46.707Z,97006.66
2022-10-04T02:50:27.624Z,97005.69
2022-10-04T02:52:58.866Z,97002.50
2022-10-04T02:55:31.278Z,96998.22
2022-10-04T02:58:01.150Z,97007.88
2022-10-04T03:00:30.710Z,97007.66
2022-10-04T03:03:16.021Z,97016.13
2022-10-04T03:05:46.055Z,97009.94
2022-10-04T03:08:14.637Z,97020.41
2022-10-04T03:10:45.006Z,97011.06
2022-10-04T03:13:16.006Z,97012.69
2022-10-04T03:15:44.448Z,97009.16
2022-10-04T03:18:12.847Z,97013.47
2022-10-04T03:20:41.690Z,96999.22
2022-10-04T03:23:11.787Z,96994.31
2022-10-04T03:25:47.343Z,96992.50
2022-10-04T03:28:16.142Z,96993.84
2022-10-04T03:30:45.328Z,96997.78
2022-10-04T03:33:18.809Z,96994.16
2022-10-04T03:35:48.667Z,96995.66
2022-10-04T03:38:17.862Z,96991.28
2022-10-04T03:40:53.232Z,96992.47
2022-10-04T03:43:24.791Z,96992.16
2022-10-04T03:45:53.443Z,97000.44
2022-10-04T03:48:29.061Z,96994.84
2022-10-04T03:50:57.566Z,96998.34
2022-10-04T03:53:30.896Z,97000.41
2022-10-04T03:56:04.175Z,96996.88
2022-10-04T03:58:32.883Z,96994.81
2022-10-04T04:01:14.640Z,96988.13
2022-10-04T04:03:52.906Z,96989.19
2022-10-04T04:06:21.994Z,96999.69
2022-10-04T04:08:53.362Z,96994.19
2022-10-04T04:11:24.909Z,96998.31
2022-10-04T04:14:00.168Z,96996.69
2022-10-04T04:16:28.613Z,97000.88
2022-10-04T04:19:00.613Z,97004.25
2022-10-04T04:21:29.166Z,97000.53
2022-10-04T04:24:00.770Z,97001.41
2022-10-04T04:26:36.082Z,96993.44
2022-10-04T04:29:08.150Z,97005.75
2022-10-04T04:31:40.268Z,96996.31
2022-10-04T04:34:17.865Z,96997.00
2022-10-04T04:36:46.138Z,96996.56
2022-10-04T04:39:37.302Z,97000.63
2022-10-04T04:42:15.401Z,97004.66
2022-10-04T04:44:49.844Z,96991.44
2022-10-04T04:47:33.212Z,96997.03
2022-10-04T04:50:07.260Z,96996.59
2022-10-04T04:52:36.247Z,96998.59
2022-10-04T04:55:06.185Z,96989.31
2022-10-04T04:57:36.008Z,96986.06
2022-10-04T05:00:05.257Z,96994.22
2022-10-04T05:02:35.595Z,96997.16
2022-10-04T05:05:23.048Z,97003.22
2022-10-04T05:07:52.670Z,97007.19
2022-10-04T05:10:31.361Z,97003.34
2022-10-04T05:13:04.453Z,97002.75
2022-10-04T05:15:34.960Z,97001.72
2022-10-04T05:18:03.664Z,97003.66
2022-10-04T05:20:34.446Z,97000.34
2022-10-04T05:23:02.473Z,97006.78
2022-10-04T05:25:33.616Z,97000.31
2022-10-04T05:28:03.620Z,96987.22
2022-10-04T05:30:42.900Z,96979.44
2022-10-04T05:33:13.418Z,96990.56
2022-10-04T05:35:55.792Z,96981.75
2022-10-04T05:38:28.917Z,96988.25
2022-10-04T05:41:02.174Z,96979.13
2022-10-04T05:43:36.923Z,96995.16
2022-10-04T05:46:23.421Z,96992.66
2022-10-04T05:48:55.448Z,97006.41
2022-10-04T05:51:25.699Z,97000.59
2022-10-04T05:53:54.434Z,97030.34
2022-10-04T05:56:37.654Z,97019.72
2022-10-04T05:59:15.223Z,97023.94
2022-10-04T06:01:49.205Z,97009.34
2022-10-04T06:04:32.540Z,96991.41
2022-10-04T06:07:03.121Z,96986.25
2022-10-04T06:09:47.103Z,96988.88
2022-10-04T06:12:18.496Z,96986.31
2022-10-04T06:15:08.356Z,96991.84
2022-10-04T06:18:03.533Z,96981.94
2022-10-04T06:20:54.917Z,96990.28
2022-10-04T06:23:24.742Z,96994.44
2022-10-04T06:25:56.348Z,96984.66
2022-10-04T06:28:28.034Z,96987.63
2022-10-04T06:31:27.904Z,96978.00
2022-10-04T06:34:11.791Z,96991.66
2022-10-04T06:37:02.160Z,97000.66
2022-10-04T06:39:45.138Z,96997.28
2022-10-04T06:42:40.651Z,96999.59
2022-10-04T06:45:22.846Z,97001.75
2022-10-04T06:48:18.622Z,96992.34
2022-10-04T06:50:51.144Z,96988.75
2022-10-04T06:53:27.879Z,96982.34
2022-10-04T06:56:12.759Z,96979.41
2022-10-04T06:59:23.674Z,96988.19
2022-10-04T07:01:52.085Z,96987.53
2022-10-04T07:04:41.161Z,96998.03
2022-10-04T07:07:34.929Z,97000.88
2022-10-04T07:10:16.561Z,96991.38
2022-10-04T07:12:49.035Z,96988.78
2022-10-04T07:15:21.077Z,96988.28
2022-10-04T07:17:50.374Z,96976.09
2022-10-04T07:20:23.743Z,96981.50
2022-10-04T07:22:56.938Z,96988.81
2022-10-04T07:25:28.961Z,96980.06
2022-10-04T07:28:14.825Z,96995.22
2022-10-04T07:30:48.609Z,97002.06
2022-10-04T07:33:19.943Z,97010.09
2022-10-04T07:35:52.022Z,97005.59
2022-10-04T07:38:25.044Z,97004.16
2022-10-04T07:41:04.965Z,97003.13
2022-10-04T07:43:35.800Z,97006.78
2022-10-04T07:46:07.666Z,97018.22
2022-10-04T07:48:41.438Z,97021.75
2022-10-04T07:51:20.587Z,97029.31
2022-10-04T07:53:52.172Z,97014.03
2022-10-04T07:56:23.667Z,97023.34
2022-10-04T07:58:58.063Z,97032.59
2022-10-04T08:01:31.558Z,97024.38
2022-10-04T08:04:26.532Z,97028.47
2022-10-04T08:06:59.960Z,97028.00
2022-10-04T08:09:48.955Z,97031.69
2022-10-04T08:12:22.024Z,97033.41
2022-10-04T08:14:56.711Z,97042.00
2022-10-04T08:17:41.835Z,97038.00
2022-10-04T08:20:24.594Z,97031.34
2022-10-04T08:23:05.866Z,97031.63
2022-10-04T08:25:42.561Z,97023.56
2022-10-04T08:28:39.501Z,97023.34
2022-10-04T08:31:21.186Z,97016.34
2022-10-04T08:33:59.489Z,97012.13
2022-10-04T08:36:41.876Z,97011.06
2022-10-04T08:39:24.348Z,97017.72
2022-10-04T08:42:28.787Z,97005.25
2022-10-04T08:45:32.402Z,97011.19
2022-10-04T08:48:34.118Z,96997.75
2022-10-04T08:51:30.595Z,97008.28
2022-10-04T08:54:35.729Z,97011.09
2022-10-04T08:57:25.502Z,96992.06
2022-10-04T09:00:21.969Z,96999.53
2022-10-04T09:03:17.830Z,97001.19
2022-10-04T09:05:57.155Z,97006.22
2022-10-04T09:09:15.442Z,96999.16
2022-10-04T09:11:56.242Z,97002.00
2022-10-04T09:14:50.128Z,97007.84
2022-10-04T09:17:22.788Z,96996.34
2022-10-04T09:20:09.079Z,97007.78
2022-10-04T09:22:50.089Z,97007.66
2022-10-04T09:25:23.808Z,96996.25
2022-10-04T09:28:22.354Z,97005.47
2022-10-04T09:31:03.041Z,96996.47
2022-10-04T09:33:51.656Z,96992.72
2022-10-04T09:36:41.549Z,97000.31
2022-10-04T09:39:33.581Z,96991.91
2022-10-04T09:42:27.813Z,97004.19
2022-10-04T09:45:16.741Z,96994.75
2022-10-04T09:47:49.185Z,96993.44
2022-10-04T09:50:50.022Z,96994.94
2022-10-04T09:53:35.966Z,96990.63
2022-10-04T09:56:39.073Z,96993.03
2022-10-04T09:59:32.500Z,96993.25
2022-10-04T10:02:33.683Z,96996.50
2022-10-04T10:05:21.006Z,97001.91
2022-10-04T10:07:53.221Z,97003.56
2022-10-04T10:10:45.313Z,97007.38
2022-10-04T10:13:43.345Z,97013.72
2022-10-04T10:16:22.785Z,97012.75
2022-10-04T10:19:01.086Z,97005.41
2022-10-04T10:21:49.672Z,97003.09
2022-10-04T10:24:30.775Z,97006.69
2022-10-04T10:27:09.724Z,97010.88
2022-10-04T10:30:05.273Z,97010.22
2022-10-04T10:32:42.811Z,97018.41
2022-10-04T10:35:21.440Z,97021.13
2022-10-04T10:38:04.793Z,97006.16
2022-10-04T10:40:41.043Z,97015.56
2022-10-04T10:43:33.521Z,97000.19
2022-10-04T10:46:06.106Z,96992.50
2022-10-04T10:48:48.365Z,97002.34
2022-10-04T10:51:20.572Z,96994.53
2022-10-04T10:54:17.045Z,97006.53
2022-10-04T10:56:56.824Z,96994.56
2022-10-04T10:59:54.096Z,96997.88
2022-10-04T11:03:11.910Z,96998.84
2022-10-04T11:06:25.143Z,97002.44
2022-10-04T11:09:23.512Z,97002.41
2022-10-04T11:12:28.778Z,97001.47
2022-10-04T11:15:13.486Z,97009.69
2022-10-04T11:18:20.279Z,96997.03
2022-10-04T11:21:28.163Z,96987.72
2022-10-04T11:24:30.502Z,96984.81
2022-10-04T11:27:14.932Z,96989.16
2022-10-04T11:30:00.311Z,96998.50
2022-10-04T11:32:55.269Z,97001.38
2022-10-04T11:36:15.399Z,96995.97
2022-10-04T11:38:53.296Z,96994.31
2022-10-04T11:41:29.258Z,96990.47
2022-10-04T11:44:17.399Z,96985.13
2022-10-04T11:46:51.142Z,96975.47
2022-10-04T11:49:37.926Z,96977.78
2022-10-04T11:52:31.375Z,96973.41
2022-10-04T11:55:35.283Z,96969.63
2022-10-04T11:58:11.978Z,96966.50
2022-10-04T12:01:01.030Z,96975.03
2022-10-04T12:03:59.946Z,96965.56
2022-10-04T12:06:40.253Z,96958.91
2022-10-04T12:09:15.719Z,96960.78
2022-10-04T12:12:33.590Z,96952.34
2022-10-04T12:15:22.337Z,96967.81
2022-10-04T12:18:12.649Z,96960.50
2022-10-04T12:21:17.973Z,96963.34
2022-10-04T12:24:09.639Z,96961.81
2022-10-04T12:27:21.876Z,96948.06
2022-10-04T12:30:22.195Z,96955.44
2022-10-04T12:32:58.196Z,96946.63
2022-10-04T12:35:33.844Z,96949.06
2022-10-04T12:38:19.752Z,96947.78
2022-10-04T12:40:53.804Z,96934.38
2022-10-04T12:43:28.169Z,96939.81
2022-10-04T12:46:06.593Z,96942.25
2022-10-04T12:48:48.250Z,96938.69
2022-10-04T12:51:29.999Z,96939.31
2022-10-04T12:54:04.150Z,96928.53
2022-10-04T12:56:44.405Z,96921.69
2022-10-04T12:59:29.161Z,96916.16
2022-10-04T13:02:05.734Z,96927.25
2022-10-04T13:04:38.879Z,96915.19
2022-10-04T13:07:30.846Z,96922.56
2022-10-04T13:10:24.230Z,96918.16
2022-10-04T13:13:13.732Z,96906.13
2022-10-04T13:18:35.606Z,96903.78
2022-10-04T13:21:06.451Z,96902.63
2022-10-04T13:23:54.343Z,96919.84
2022-10-04T13:26:42.643Z,96914.50
2022-10-04T13:29:18.662Z,96914.97
2022-10-04T13:31:50.906Z,96913.44
2022-10-04T13:34:28.247Z,96911.31
2022-10-04T13:37:14.224Z,96909.91
2022-10-04T13:39:59.410Z,96901.81
2022-10-04T13:42:42.435Z,96907.09
2022-10-04T13:45:32.132Z,96906.19
2022-10-04T13:48:26.435Z,96912.47
2022-10-04T13:51:36.667Z,96918.00
2022-10-04T13:54:31.261Z,96921.78
2022-10-04T13:57:07.551Z,96915.19
2022-10-04T13:59:44.263Z,96924.56
2022-10-04T14:02:34.521Z,96908.97
2022-10-04T14:05:47.215Z,96905.78
2022-10-04T14:08:49.920Z,96912.19
2022-10-04T14:12:04.414Z,96917.34
2022-10-04T14:15:14.681Z,96913.25
2022-10-04T14:18:26.915Z,96910.78
2022-10-04T14:21:35.535Z,96918.06
2022-10-04T14:24:35.623Z,96920.28
2022-10-04T14:27:37.452Z,96913.50
2022-10-04T14:30:14.929Z,96923.66
2022-10-04T14:33:15.330Z,96919.72
2022-10-04T14:35:47.967Z,96923.44
2022-10-04T14:38:37.634Z,96925.41
2022-10-04T14:41:46.247Z,96924.13
2022-10-04T14:44:51.047Z,96921.16
2022-10-04T14:47:38.751Z,96925.78
2022-10-04T14:50:23.120Z,96926.91
2022-10-04T14:53:05.166Z,96927.00
2022-10-04T14:55:55.701Z,96924.88
2022-10-04T14:58:29.104Z,96924.03
2022-10-04T15:01:06.675Z,96922.41
2022-10-04T15:03:40.661Z,96929.56
2022-10-04T15:06:36.522Z,96931.47
2022-10-04T15:09:41.284Z,96916.19
2022-10-04T15:13:08.727Z,96927.91
2022-10-04T15:15:53.409Z,96928.19
2022-10-04T15:18:31.365Z,96933.94
2022-10-04T15:21:02.685Z,96932.97
2022-10-04T15:23:37.883Z,96931.16
2022-10-04T15:26:13.917Z,96934.94
2022-10-04T15:28:56.823Z,96933.88
2022-10-04T15:31:29.699Z,96930.47
2022-10-04T15:34:03.200Z,96928.78
2022-10-04T15:37:05.450Z,96937.28
2022-10-04T15:40:06.367Z,96925.31
2022-10-04T15:42:35.475Z,96923.66
2022-10-04T15:45:38.722Z,96930.47
2022-10-04T15:48:32.925Z,96930.91
2022-10-04T15:51:07.124Z,96928.56
2022-10-04T15:54:03.096Z,96924.72
2022-10-04T15:56:46.256Z,96912.09
2022-10-04T15:59:26.750Z,96917.25
2022-10-04T16:02:18.558Z,96923.44
2022-10-04T16:04:48.101Z,96923.00
2022-10-04T16:07:32.224Z,96922.41
2022-10-04T16:10:15.152Z,96920.72
2022-10-04T16:13:14.246Z,96910.41
2022-10-04T16:15:48.133Z,96908.59
2022-10-04T16:18:35.606Z,96913.00
2022-10-04T16:21:12.816Z,96914.66
2022-10-04T16:23:43.992Z,96910.63
2022-10-04T16:26:14.022Z,96913.66
2022-10-04T16:29:07.109Z,96916.13
2022-10-04T16:31:43.922Z,96911.44
2022-10-04T16:34:27.103Z,96907.44
2022-10-04T16:36:59.779Z,96910.34
2022-10-04T16:39:52.309Z,96914.69
2022-10-04T16:42:24.558Z,96900.78
2022-10-04T16:44:56.097Z,96906.19
2022-10-04T16:47:28.563Z,96907.41
2022-10-04T16:49:58.901Z,96899.47
2022-10-04T16:52:48.383Z,96897.59
2022-10-04T16:55:26.665Z,96892.69
2022-10-04T16:58:37.615Z,96900.41
2022-10-04T17:01:57.557Z,96901.53
2022-10-04T17:04:44.864Z,96889.06
2022-10-04T17:07:24.936Z,96892.09
2022-10-04T17:09:58.134Z,96902.72
2022-10-04T17:12:35.367Z,96900.16
2022-10-04T17:15:45.527Z,96901.59
2022-10-04T17:18:21.209Z,96903.09
2022-10-04T17:20:57.909Z,96907.47
2022-10-04T17:23:54.652Z,96921.44
2022-10-04T17:26:39.560Z,96914.84
2022-10-04T17:29:21.737Z,96922.00
2022-10-04T17:31:55.202Z,96916.91
2022-10-04T17:34:33.330Z,96921.00
2022-10-04T17:37:06.355Z,96929.19
2022-10-04T17:39:44.382Z,96920.84
2022-10-04T17:42:28.774Z,96932.00
2022-10-04T17:45:36.795Z,96927.59
2022-10-04T17:48:26.736Z,96923.75
2022-10-04T17:51:17.603Z,96922.94
2022-10-04T17:54:08.038Z,96931.00
2022-10-04T17:56:41.406Z,96923.34
2022-10-04T17:59:14.106Z,96925.84
2022-10-04T18:01:45.912Z,96929.22
2022-10-04T18:04:18.757Z,96933.22
2022-10-04T18:06:52.372Z,96932.69
2022-10-04T18:09:24.185Z,96935.75
2022-10-04T18:11:56.871Z,96939.44
2022-10-04T18:14:46.610Z,96941.28
2022-10-04T18:17:27.043Z,96938.91
2022-10-04T18:20:03.083Z,96938.63
2022-10-04T18:22:43.425Z,96934.69
2022-10-04T18:25:15.682Z,96936.84
2022-10-04T18:28:02.194Z,96935.19
2022-10-04T18:30:30.795Z,96930.94
2022-10-04T18:32:59.095Z,96940.69
2022-10-04T18:35:29.208Z,96934.88
2022-10-04T18:37:59.813Z,96938.06
2022-10-04T18:40:28.927Z,96944.56
2022-10-04T18:43:01.796Z,96933.94
2022-10-04T18:45:31.246Z,96946.16
2022-10-04T18:48:01.337Z,96939.06
2022-10-04T18:50:35.724Z,96943.94
2022-10-04T18:53:24.274Z,96941.53
2022-10-04T18:55:59.770Z,96941.53
2022-10-04T18:58:59.403Z,96946.41
2022-10-04T19:02:04.020Z,96945.34
2022-10-04T19:04:39.719Z,96942.63
2022-10-04T19:07:10.969Z,96946.56
2022-10-04T19:10:04.891Z,96945.84
2022-10-04T19:12:41.746Z,96950.09
2022-10-04T19:15:23.274Z,96950.25
2022-10-04T19:17:56.568Z,96950.38
2022-10-04T19:20:27.915Z,96959.09
2022-10-04T19:23:04.267Z,96958.44
2022-10-04T19:25:39.135Z,96963.25
2022-10-04T19:28:10.532Z,96965.38
2022-10-04T19:31:01.622Z,96972.19
2022-10-04T19:33:38.308Z,96971.94
2022-10-04T19:36:15.354Z,96977.31
2022-10-04T19:38:53.512Z,96974.00
2022-10-04T19:41:30.855Z,96968.19
2022-10-04T19:44:05.242Z,96963.69
2022-10-04T19:46:41.677Z,96957.84
2022-10-04T19:49:19.029Z,96952.81
2022-10-04T19:51:51.324Z,96960.97
2022-10-04T19:54:22.896Z,96967.47
2022-10-04T19:56:51.957Z,96969.78
2022-10-04T19:59:24.166Z,96975.44
2022-10-04T20:01:53.800Z,96974.97
2022-10-04T20:04:38.517Z,96977.50
2022-10-04T20:07:13.193Z,96970.66
2022-10-04T20:09:59.273Z,96963.16
2022-10-04T20:12:36.451Z,96964.66
2022-10-04T20:15:15.873Z,96960.00
2022-10-04T20:17:47.526Z,96961.34
2022-10-04T20:20:17.615Z,96959.69
2022-10-04T20:22:57.342Z,96958.06
2022-10-04T20:26:06.148Z,96956.06
2022-10-04T20:28:44.824Z,96952.22
2022-10-04T20:31:53.696Z,96965.34
2022-10-04T20:34:34.280Z,96960.72
2022-10-04T20:37:03.152Z,96965.34
2022-10-04T20:40:01.520Z,96955.22
2022-10-04T20:42:32.677Z,96966.63
2022-10-04T20:45:03.704Z,96972.72
2022-10-04T20:47:39.233Z,96970.66
2022-10-04T20:50:16.493Z,96974.50
2022-10-04T20:52:46.687Z,96985.38
2022-10-04T20:55:27.162Z,96983.22
2022-10-04T20:57:57.010Z,96987.03
2022-10-04T21:00:27.334Z,96994.31
2022-10-04T21:03:09.611Z,97001.50
2022-10-04T21:05:40.325Z,97002.50
2022-10-04T21:08:15.973Z,97011.81
2022-10-04T21:11:19.444Z,97006.31
2022-10-04T21:13:59.189Z,97010.97
2022-10-04T21:16:52.331Z,97012.88
2022-10-04T21:19:47.329Z,97016.44
2022-10-04T21:22:42.923Z,97012.44
2022-10-04T21:25:42.577Z,97014.22
2022-10-04T21:28:40.758Z,97016.97
2022-10-04T21:31:09.049Z,97015.19
2022-10-04T21:33:37.904Z,97021.53
2022-10-04T21:36:06.966Z,97021.19
2022-10-04T21:38:35.256Z,97015.75
2022-10-04T21:41:04.838Z,97001.25
2022-10-04T21:43:33.382Z,97011.56
2022-10-04T21:46:01.795Z,97012.78
2022-10-04T21:48:30.129Z,97005.19
2022-10-04T21:50:58.399Z,97008.19
2022-10-04T21:53:26.615Z,97002.63
2022-10-04T21:55:54.897Z,97027.81
2022-10-04T21:58:24.467Z,97013.59
2022-10-04T22:00:52.732Z,97018.66
2022-10-04T22:03:21.086Z,97014.53
2022-10-04T22:05:49.334Z,97020.31
2022-10-04T22:08:17.631Z,97017.38
2022-10-04T22:10:47.232Z,97016.69
2022-10-04T22:13:15.551Z,97017.06
2022-10-04T22:15:45.190Z,97019.38
2022-10-04T22:18:13.467Z,97006.63
2022-10-04T22:20:41.702Z,97010.63
2022-10-04T22:23:13.366Z,97014.97
2022-10-04T22:25:41.624Z,97014.75
2022-10-04T22:28:18.422Z,97019.72
2022-10-04T22:30:49.450Z,97013.75
2022-10-04T22:33:28.265Z,97017.78
2022-10-04T22:35:57.612Z,97019.41
2022-10-04T22:38:25.817Z,97019.91
2022-10-04T22:40:54.539Z,97024.69
2022-10-04T22:43:22.746Z,97018.44
2022-10-04T22:45:58.506Z,97023.53
2022-10-04T22:48:28.898Z,97028.00
2022-10-04T22:50:57.220Z,97022.41
2022-10-04T22:53:25.836Z,97037.09
2022-10-04T22:55:55.895Z,97030.81
2022-10-04T22:58:24.197Z,97036.41
2022-10-04T23:00:54.483Z,97032.81
2022-10-04T23:03:31.175Z,97035.94
2022-10-04T23:05:59.587Z,97028.34
2022-10-04T23:08:28.242Z,97020.72
2022-10-04T23:10:56.848Z,97031.72
2022-10-04T23:13:26.352Z,97027.03
2022-10-04T23:15:58.727Z,97029.78
2022-10-04T23:18:28.025Z,97029.38
2022-10-04T23:20:59.009Z,97028.91
2022-10-04T23:23:28.858Z,97035.25
2022-10-04T23:25:57.213Z,97030.34
2022-10-04T23:28:25.739Z,97027.69
2022-10-04T23:31:03.097Z,97024.78
2022-10-04T23:33:31.501Z,97037.53
2022-10-04T23:35:59.874Z,97033.69
2022-10-04T23:38:29.355Z,97024.94
2022-10-04T23:40:57.620Z,97032.78
2022-10-04T23:43:26.899Z,97035.50
2022-10-04T23:45:58.772Z,97031.44
2022-10-04T23:48:28.772Z,97033.97
2022-10-04T23:50:59.761Z,97039.91
2022-10-04T23:53:29.078Z,97035.81
2022-10-04T23:55:58.377Z,97043.38
2022-10-04T23:58:31.608Z,97038.16
